createdAt,value
2023-03-21T00:01:06.597Z,95533.03
2023-03-21T00:04:52.288Z,95523.34
2023-03-21T00:08:36.621Z,95527.78
2023-03-21T00:12:21.086Z,95509.44
2023-03-21T00:16:14.058Z,95514.50
2023-03-21T00:20:06.358Z,95510.06
2023-03-21T00:23:49.375Z,95503.19
2023-03-21T00:27:53.216Z,95504.81
2023-03-21T00:31:36.460Z,95498.22
2023-03-21T00:35:53.685Z,95495.59
2023-03-21T00:39:23.118Z,95495.22
2023-03-21T00:43:05.815Z,95493.59
2023-03-21T00:47:00.844Z,95493.22
2023-03-21T00:50:52.448Z,95489.22
2023-03-21T00:54:35.649Z,95482.38
2023-03-21T00:58:18.999Z,95488.41
2023-03-21T01:02:01.781Z,95483.38
2023-03-21T01:06:05.752Z,95486.41
2023-03-21T01:09:50.868Z,95470.31
2023-03-21T01:13:36.349Z,95470.75
2023-03-21T01:17:19.121Z,95465.50
2023-03-21T01:21:02.319Z,95461.47
2023-03-21T01:24:53.827Z,95468.50
2023-03-21T01:28:41.308Z,95462.28
2023-03-21T01:32:23.978Z,95460.47
2023-03-21T01:36:13.106Z,95463.50
2023-03-21T01:39:56.766Z,95463.94
2023-03-21T01:43:42.794Z,95452.31
2023-03-21T01:47:25.656Z,95445.44
2023-03-21T01:51:08.981Z,95438.53
2023-03-21T01:54:53.149Z,95439.53
2023-03-21T01:58:36.962Z,95441.16
2023-03-21T02:02:23.399Z,95445.78
2023-03-21T02:06:11.198Z,95439.91
2023-03-21T02:09:54.605Z,95442.28
2023-03-21T02:13:37.659Z,95429.19
2023-03-21T02:17:28.156Z,95435.63
2023-03-21T02:21:33.158Z,95433.81
2023-03-21T02:26:03.248Z,95438.69
2023-03-21T02:30:29.633Z,95434.44
2023-03-21T02:34:47.276Z,95431.19
2023-03-21T02:38:33.844Z,95427.75
2023-03-21T02:42:21.699Z,95431.19
2023-03-21T02:46:09.815Z,95436.44
2023-03-21T02:49:56.714Z,95446.09
2023-03-21T02:53:43.468Z,95433.81
2023-03-21T02:57:33.826Z,95432.81
2023-03-21T03:01:26.253Z,95429.56
2023-03-21T03:05:21.332Z,95427.94
2023-03-21T03:09:19.981Z,95436.81
2023-03-21T03:13:11.215Z,95435.81
2023-03-21T03:17:04.323Z,95429.56
2023-03-21T03:20:51.346Z,95430.81
2023-03-21T03:24:38.479Z,95428.81
2023-03-21T03:28:27.182Z,95416.69
2023-03-21T03:32:12.735Z,95421.31
2023-03-21T03:36:05.061Z,95412.84
2023-03-21T03:39:52.921Z,95413.22
2023-03-21T03:43:39.893Z,95406.97
2023-03-21T03:47:32.740Z,95425.94
2023-03-21T03:51:22.450Z,95420.50
2023-03-21T03:55:08.051Z,95419.09
2023-03-21T03:58:50.746Z,95421.09
2023-03-21T04:02:33.529Z,95429.13
2023-03-21T04:06:16.805Z,95423.06
2023-03-21T04:09:59.812Z,95416.97
2023-03-21T04:13:44.026Z,95425.81
2023-03-21T04:17:26.766Z,95420.59
2023-03-21T04:21:10.756Z,95414.97
2023-03-21T04:24:53.450Z,95413.59
2023-03-21T04:28:37.313Z,95406.72
2023-03-21T04:32:26.136Z,95412.59
2023-03-21T04:36:27.624Z,95406.72
2023-03-21T04:40:11.560Z,95404.28
2023-03-21T04:43:54.749Z,95398.63
2023-03-21T04:47:38.796Z,95407.69
2023-03-21T04:51:22.269Z,95404.88
2023-03-21T04:55:05.772Z,95396.81
2023-03-21T04:58:48.664Z,95409.09
2023-03-21T05:02:31.385Z,95401.25
2023-03-21T05:06:16.048Z,95405.69
2023-03-21T05:10:00.050Z,95403.88
2023-03-21T05:13:43.921Z,95408.66
2023-03-21T05:17:28.576Z,95403.63
2023-03-21T05:21:11.226Z,95402.00
2023-03-21T05:24:56.026Z,95401.56
2023-03-21T05:28:39.963Z,95399.75
2023-03-21T05:32:22.683Z,95399.56
2023-03-21T05:36:06.007Z,95398.56
2023-03-21T05:39:48.736Z,95397.75
2023-03-21T05:43:32.754Z,95404.63
2023-03-21T05:47:16.457Z,95401.00
2023-03-21T05:50:59.089Z,95403.25
2023-03-21T05:54:41.904Z,95416.97
2023-03-21T05:58:24.700Z,95416.59
2023-03-21T06:02:08.794Z,95418.59
2023-03-21T06:05:51.530Z,95418.59
2023-03-21T06:09:34.768Z,95427.06
2023-03-21T06:13:17.530Z,95429.50
2023-03-21T06:17:00.511Z,95426.88
2023-03-21T06:20:44.597Z,95423.44
2023-03-21T06:24:27.624Z,95421.47
2023-03-21T06:28:10.799Z,95427.94
2023-03-21T06:31:53.690Z,95422.31
2023-03-21T06:35:36.859Z,95429.19
2023-03-21T06:39:21.143Z,95429.19
2023-03-21T06:43:03.959Z,95426.81
2023-03-21T06:46:46.660Z,95434.09
2023-03-21T06:50:30.826Z,95439.81
2023-03-21T06:54:14.565Z,95441.88
2023-03-21T06:57:58.939Z,95443.31
2023-03-21T07:01:42.802Z,95439.91
2023-03-21T07:05:25.885Z,95435.28
2023-03-21T07:09:08.560Z,95430.28
2023-03-21T07:12:53.062Z,95434.78
2023-03-21T07:16:37.228Z,95434.00
2023-03-21T07:20:20.085Z,95438.88
2023-03-21T07:24:02.762Z,95444.72
2023-03-21T07:27:54.275Z,95439.91
2023-03-21T07:31:39.927Z,95441.97
2023-03-21T07:35:22.780Z,95435.09
2023-03-21T07:39:06.463Z,95442.78
2023-03-21T07:42:50.264Z,95447.63
2023-03-21T07:46:33.070Z,95443.63
2023-03-21T07:50:18.385Z,95438.06
2023-03-21T07:54:03.426Z,95441.34
2023-03-21T07:57:46.630Z,95440.38
2023-03-21T08:01:29.568Z,95443.44
2023-03-21T08:05:12.524Z,95447.31
2023-03-21T08:08:56.640Z,95441.66
2023-03-21T08:12:39.502Z,95443.91
2023-03-21T08:16:22.350Z,95448.56
2023-03-21T08:20:08.256Z,95448.59
2023-03-21T08:23:51.582Z,95437.72
2023-03-21T08:27:36.474Z,95437.13
2023-03-21T08:31:22.511Z,95436.16
2023-03-21T08:35:10.040Z,95435.72
2023-03-21T08:38:56.854Z,95441.22
2023-03-21T08:42:41.814Z,95432.69
2023-03-21T08:46:24.694Z,95441.19
2023-03-21T08:50:09.178Z,95436.34
2023-03-21T08:53:52.031Z,95435.13
2023-03-21T08:57:34.799Z,95430.47
2023-03-21T09:01:18.984Z,95423.38
2023-03-21T09:05:01.731Z,95424.59
2023-03-21T09:08:46.265Z,95428.47
2023-03-21T09:12:29.091Z,95414.09
2023-03-21T09:16:11.814Z,95414.47
2023-03-21T09:20:00.488Z,95405.94
2023-03-21T09:23:44.806Z,95412.81
2023-03-21T09:27:28.362Z,95408.34
2023-03-21T09:31:12.226Z,95402.22
2023-03-21T09:34:57.392Z,95412.78
2023-03-21T09:38:40.608Z,95399.81
2023-03-21T09:42:33.489Z,95406.69
2023-03-21T09:46:22.096Z,95400.19
2023-03-21T09:50:17.233Z,95405.44
2023-03-21T09:54:02.424Z,95400.53
2023-03-21T09:57:47.018Z,95403.97
2023-03-21T10:01:35.218Z,95401.88
2023-03-21T10:05:21.728Z,95396.41
2023-03-21T10:09:08.558Z,95402.66
2023-03-21T10:12:53.815Z,95399.38
2023-03-21T10:16:40.931Z,95398.03
2023-03-21T10:20:26.305Z,95388.31
2023-03-21T10:24:15.917Z,95381.00
2023-03-21T10:27:59.496Z,95383.41
2023-03-21T10:31:42.940Z,95378.94
2023-03-21T10:35:27.076Z,95378.63
2023-03-21T10:39:20.868Z,95378.38
2023-03-21T10:43:35.357Z,95360.13
2023-03-21T10:47:21.941Z,95359.69
2023-03-21T10:51:08.181Z,95357.97
2023-03-21T10:54:51.455Z,95350.81
2023-03-21T10:58:39.406Z,95353.78
2023-03-21T11:02:26.673Z,95349.88
2023-03-21T11:06:15.109Z,95352.00
2023-03-21T11:09:59.915Z,95349.75
2023-03-21T11:13:43.889Z,95346.69
2023-03-21T11:17:30.358Z,95347.84
2023-03-21T11:21:15.482Z,95340.09
2023-03-21T11:25:02.243Z,95343.63
2023-03-21T11:28:46.881Z,95326.91
2023-03-21T11:32:34.235Z,95318.34
2023-03-21T11:36:33.762Z,95315.47
2023-03-21T11:40:21.791Z,95314.88
2023-03-21T11:44:04.598Z,95298.19
2023-03-21T11:47:49.424Z,95294.31
2023-03-21T11:51:40.793Z,95293.41
2023-03-21T11:55:32.565Z,95292.44
2023-03-21T11:59:22.227Z,95283.41
2023-03-21T12:03:30.675Z,95276.41
2023-03-21T12:07:43.791Z,95266.09
2023-03-21T12:11:32.405Z,95253.75
2023-03-21T12:15:20.076Z,95247.56
2023-03-21T12:19:28.733Z,95251.50
2023-03-21T12:23:26.835Z,95238.97
2023-03-21T12:27:13.066Z,95244.16
2023-03-21T12:31:02.979Z,95230.91
2023-03-21T12:35:04.115Z,95240.31
2023-03-21T12:38:55.390Z,95237.88
2023-03-21T12:43:01.884Z,95230.94
2023-03-21T12:46:46.946Z,95213.13
2023-03-21T12:50:36.823Z,95224.78
2023-03-21T12:54:27.639Z,95213.84
2023-03-21T12:58:13.002Z,95208.09
2023-03-21T13:01:58.824Z,95207.34
2023-03-21T13:05:44.589Z,95202.03
2023-03-21T13:09:37.706Z,95192.34
2023-03-21T13:13:24.130Z,95179.91
2023-03-21T13:17:12.023Z,95182.44
2023-03-21T13:20:56.176Z,95182.28
2023-03-21T13:24:44.773Z,95165.78
2023-03-21T13:28:29.179Z,95169.28
2023-03-21T13:32:17.976Z,95168.72
2023-03-21T13:36:06.200Z,95163.59
2023-03-21T13:39:51.261Z,95166.44
2023-03-21T13:43:37.141Z,95155.66
2023-03-21T13:47:53.018Z,95160.28
2023-03-21T13:51:44.072Z,95156.66
2023-03-21T13:55:29.755Z,95145.25
2023-03-21T13:59:13.625Z,95155.00
2023-03-21T14:02:58.792Z,95141.31
2023-03-21T14:06:47.491Z,95141.88
2023-03-21T14:10:35.894Z,95155.53
2023-03-21T14:14:19.052Z,95143.16
2023-03-21T14:18:15.816Z,95143.06
2023-03-21T14:22:11.963Z,95143.84
2023-03-21T14:25:56.164Z,95146.25
2023-03-21T14:29:40.511Z,95143.16
2023-03-21T14:33:28.206Z,95137.38
2023-03-21T14:37:12.503Z,95127.06
2023-03-21T14:40:58.844Z,95122.31
2023-03-21T14:44:54.511Z,95118.16
2023-03-21T14:48:38.241Z,95121.03
2023-03-21T14:52:24.471Z,95126.34
2023-03-21T14:56:12.260Z,95108.19
2023-03-21T14:59:56.882Z,95108.88
2023-03-21T15:03:39.683Z,95103.56
2023-03-21T15:07:26.903Z,95107.88
2023-03-21T15:11:14.078Z,95108.03
2023-03-21T15:14:57.200Z,95105.16
2023-03-21T15:18:40.431Z,95105.66
2023-03-21T15:22:28.780Z,95116.28
2023-03-21T15:26:16.743Z,95117.91
2023-03-21T15:29:59.727Z,95109.88
2023-03-21T15:33:42.479Z,95103.94
2023-03-21T15:37:27.463Z,95107.59
2023-03-21T15:41:28.216Z,95106.94
2023-03-21T15:45:17.032Z,95105.81
2023-03-21T15:49:09.189Z,95098.97
2023-03-21T15:52:53.299Z,95099.19
2023-03-21T15:56:37.422Z,95101.78
2023-03-21T16:00:25.565Z,95103.00
2023-03-21T16:04:10.216Z,95104.22
2023-03-21T16:07:53.002Z,95106.75
2023-03-21T16:11:41.292Z,95111.59
2023-03-21T16:15:25.322Z,95108.72
2023-03-21T16:19:08.685Z,95113.44
2023-03-21T16:22:51.562Z,95112.06
2023-03-21T16:26:37.589Z,95114.13
2023-03-21T16:30:22.568Z,95123.59
2023-03-21T16:34:05.841Z,95127.75
2023-03-21T16:37:49.671Z,95119.81
2023-03-21T16:41:32.362Z,95113.72
2023-03-21T16:45:15.035Z,95122.34
2023-03-21T16:48:59.439Z,95122.16
2023-03-21T16:52:42.129Z,95131.81
2023-03-21T16:56:27.653Z,95120.91
2023-03-21T17:00:14.251Z,95128.28
2023-03-21T17:03:57.709Z,95119.28
2023-03-21T17:07:44.085Z,95131.50
2023-03-21T17:11:31.411Z,95124.59
2023-03-21T17:15:14.563Z,95127.56
2023-03-21T17:18:59.221Z,95135.34
2023-03-21T17:22:43.349Z,95129.72
2023-03-21T17:26:28.052Z,95135.81
2023-03-21T17:30:26.341Z,95143.75
2023-03-21T17:34:09.708Z,95139.06
2023-03-21T17:37:54.306Z,95138.38
2023-03-21T17:41:37.089Z,95133.66
2023-03-21T17:45:20.530Z,95139.47
2023-03-21T17:49:03.274Z,95136.38
2023-03-21T17:52:46.121Z,95139.22
2023-03-21T17:56:31.728Z,95137.63
2023-03-21T18:00:18.014Z,95136.47
2023-03-21T18:04:02.725Z,95143.00
2023-03-21T18:08:08.917Z,95149.56
2023-03-21T18:11:49.930Z,95147.38
2023-03-21T18:15:32.808Z,95140.81
2023-03-21T18:19:15.595Z,95145.50
2023-03-21T18:22:58.249Z,95145.03
2023-03-21T18:26:41.126Z,95148.28
2023-03-21T18:30:56.557Z,95155.50
2023-03-21T18:34:28.952Z,95152.19
2023-03-21T18:38:12.012Z,95167.16
2023-03-21T18:41:59.678Z,95164.66
2023-03-21T18:45:43.890Z,95167.88
2023-03-21T18:53:29.759Z,95160.16
2023-03-21T19:01:16.484Z,95167.75
2023-03-21T19:04:59.231Z,95173.25
2023-03-21T19:08:42.098Z,95171.25
2023-03-21T19:12:24.873Z,95181.22
2023-03-21T19:16:11.295Z,95176.41
2023-03-21T19:19:55.663Z,95179.91
2023-03-21T19:24:18.082Z,95182.41
2023-03-21T19:27:41.611Z,95175.72
2023-03-21T19:31:25.101Z,95165.16
2023-03-21T19:35:09.959Z,95170.91
2023-03-21T19:38:52.811Z,95188.00
2023-03-21T19:42:36.615Z,95182.34
2023-03-21T19:46:20.862Z,95179.72
2023-03-21T19:54:07.820Z,95185.06
2023-03-21T19:57:50.628Z,95189.19
2023-03-21T20:01:33.352Z,95187.19
2023-03-21T20:05:22.016Z,95186.03
2023-03-21T20:09:47.301Z,95181.19
2023-03-21T20:13:08.968Z,95184.88
2023-03-21T20:16:55.061Z,95195.03
2023-03-21T20:20:38.309Z,95199.13
2023-03-21T20:24:21.096Z,95201.84
2023-03-21T20:28:15.826Z,95189.09
2023-03-21T20:32:03.977Z,95195.22
2023-03-21T20:39:49.552Z,95192.66
2023-03-21T20:47:37.549Z,95192.50
2023-03-21T20:55:23.300Z,95192.66
2023-03-21T20:59:17.372Z,95187.00
2023-03-21T21:03:07.821Z,95193.94
2023-03-21T21:06:50.806Z,95191.75
2023-03-21T21:10:34.483Z,95204.56
2023-03-21T21:14:18.154Z,95186.84
2023-03-21T21:18:06.084Z,95197.81
2023-03-21T21:21:50.869Z,95200.72
2023-03-21T21:25:37.418Z,95199.53
2023-03-21T21:29:20.116Z,95200.84
2023-03-21T21:33:02.871Z,95193.22
2023-03-21T21:36:45.940Z,95193.03
2023-03-21T21:40:29.978Z,95193.66
2023-03-21T21:44:12.645Z,95205.84
2023-03-21T21:47:55.735Z,95201.41
2023-03-21T21:51:40.950Z,95194.56
2023-03-21T21:55:23.915Z,95178.81
2023-03-21T21:59:08.324Z,95191.00
2023-03-21T22:02:51.294Z,95197.47
2023-03-21T22:06:34.205Z,95195.28
2023-03-21T22:10:17.057Z,95189.03
2023-03-21T22:13:59.723Z,95194.50
2023-03-21T22:17:43.699Z,95193.91
2023-03-21T22:21:26.348Z,95194.69
2023-03-21T22:25:10.912Z,95199.97
2023-03-21T22:28:53.572Z,95191.88
2023-03-21T22:32:38.043Z,95184.59
2023-03-21T22:36:22.003Z,95198.75
2023-03-21T22:40:09.771Z,95194.94
2023-03-21T22:43:52.438Z,95200.41
2023-03-21T22:47:35.280Z,95192.13
2023-03-21T22:51:17.958Z,95187.06
2023-03-21T22:55:02.038Z,95196.78
2023-03-21T22:58:44.842Z,95202.47
2023-03-21T23:02:28.080Z,95190.31
2023-03-21T23:06:10.852Z,95191.75
2023-03-21T23:09:53.555Z,95207.34
2023-03-21T23:13:37.649Z,95206.13
2023-03-21T23:17:20.413Z,95203.72
2023-03-21T23:21:03.278Z,95191.78
2023-03-21T23:24:45.945Z,95203.53
2023-03-21T23:28:28.591Z,95193.63
2023-03-21T23:32:12.563Z,95189.56
2023-03-21T23:35:56.310Z,95194.63
2023-03-21T23:39:39.628Z,95186.78
2023-03-21T23:43:22.507Z,95189.56
2023-03-21T23:47:05.317Z,95180.28
2023-03-21T23:50:49.476Z,95191.41
2023-03-21T23:54:32.113Z,95187.97
2023-03-21T23:58:14.873Z,95178.47
